Strona główna
METAR-TAF:

METAR-TAF

Lotnisko :

Port lotniczy Kunovice

Uherské Hradiště, Czechy

Szerokość geograficzna: 49-01-46N, Długość geograficzna: 017-26-23E, wysokość: 177 m

Aktualna obserwacja pogody

Raport powstał 10 godziny i 24 minut temu, godzina 15:00 UTC
Wiatr 4 kt od północno-północny wschód
Temperatura 3°C
Wilgotność 75%
Ciśnienie 1045 hPa
Widzialność 10 km lub więcej
Mało chmury na wysokości 3000 ft

METAR: LKKU 201500Z 02004KT 9999 FEW030 03/M01 Q1045

czas: 02:24 (01:24 UTC)


TAF: brakujący

Obserwacja i prognoza pogody dla ponad 4000 lotnisk (raport METAR i TAF).

Dostępne stacje oznaczono żółtymi i czerwonymi punktami na mapie.

Najedź kursorem aby zobaczyć nazwę stacji.

Kliknij aby zobaczyć obserwacje i prognozy pogody.

Aby zmienić mapę: kliknij na zielony przycisk z czarnym krzyżykiem, aby powiększyć; na zielony przycisk z myślnikiem, aby pomniejszyć; na zielone strzałki, aby przejść do map sąsiednich.


METAR-TAF: